createdAt,value
2019-03-11T00:00:28.762Z,8.50
2019-03-11T00:02:56.100Z,14.53
2019-03-11T00:05:23.374Z,7.95
2019-03-11T00:07:50.662Z,10.50
2019-03-11T00:10:17.939Z,5.65
2019-03-11T00:12:45.230Z,6.22
2019-03-11T00:15:12.523Z,8.75
2019-03-11T00:17:39.786Z,8.70
2019-03-11T00:20:08.035Z,8.10
2019-03-11T00:22:35.479Z,10.28
2019-03-11T00:25:02.752Z,8.53
2019-03-11T00:27:30.024Z,7.70
2019-03-11T00:29:57.310Z,9.60
2019-03-11T00:32:24.575Z,9.15
2019-03-11T00:34:51.989Z,9.75
2019-03-11T00:37:19.299Z,10.30
2019-03-11T00:39:46.956Z,6.78
2019-03-11T00:42:14.274Z,9.13
2019-03-11T00:44:41.575Z,12.65
2019-03-11T00:47:08.917Z,7.55
2019-03-11T00:49:36.231Z,7.72
2019-03-11T00:52:03.496Z,8.55
2019-03-11T00:54:31.103Z,10.30
2019-03-11T00:56:58.391Z,6.83
2019-03-11T00:59:25.687Z,10.93
2019-03-11T01:01:52.974Z,10.18
2019-03-11T01:04:20.239Z,8.25
2019-03-11T01:06:47.637Z,8.95
2019-03-11T01:09:14.918Z,11.60
2019-03-11T01:11:42.201Z,10.55
2019-03-11T01:14:09.990Z,8.30
2019-03-11T01:16:37.356Z,6.83
2019-03-11T01:19:04.647Z,7.28
2019-03-11T01:21:31.922Z,13.62
2019-03-11T01:23:59.208Z,8.28
2019-03-11T01:26:26.488Z,6.05
2019-03-11T01:28:53.778Z,10.65
2019-03-11T01:31:21.039Z,7.15
2019-03-11T01:33:48.326Z,6.72
2019-03-11T01:36:15.590Z,8.78
2019-03-11T01:38:42.875Z,4.35
2019-03-11T01:41:10.168Z,9.08
2019-03-11T01:43:37.498Z,8.43
2019-03-11T01:46:04.781Z,6.95
2019-03-11T01:48:32.057Z,9.88
2019-03-11T01:50:59.348Z,6.80
2019-03-11T01:53:26.637Z,8.15
2019-03-11T01:55:53.929Z,4.55
2019-03-11T01:58:21.219Z,9.13
2019-03-11T02:00:48.798Z,4.87
2019-03-11T02:03:16.086Z,8.60
2019-03-11T02:05:43.381Z,6.03
2019-03-11T02:08:10.740Z,14.00
2019-03-11T02:10:38.135Z,8.75
2019-03-11T02:13:05.503Z,9.63
2019-03-11T02:15:32.796Z,8.20
2019-03-11T02:18:00.119Z,3.27
2019-03-11T02:20:27.404Z,7.03
2019-03-11T02:22:54.675Z,8.75
2019-03-11T02:25:21.968Z,8.88
2019-03-11T02:27:49.259Z,10.40
2019-03-11T02:30:17.260Z,9.15
2019-03-11T02:32:44.961Z,3.35
2019-03-11T02:35:12.379Z,5.47
2019-03-11T02:37:39.815Z,7.58
2019-03-11T02:40:08.678Z,7.17
2019-03-11T02:42:35.984Z,7.28
2019-03-11T02:45:03.523Z,9.98
2019-03-11T02:47:30.835Z,10.53
2019-03-11T02:49:58.116Z,7.60
2019-03-11T02:52:25.381Z,9.03
2019-03-11T02:54:52.671Z,9.33
2019-03-11T02:57:19.950Z,6.72
2019-03-11T02:59:47.235Z,5.17
2019-03-11T03:02:16.270Z,10.93
2019-03-11T03:04:45.461Z,8.63
2019-03-11T03:07:13.022Z,10.00
2019-03-11T03:09:40.301Z,10.82
2019-03-11T03:12:07.658Z,7.15
2019-03-11T03:14:34.934Z,9.58
2019-03-11T03:17:02.200Z,13.40
2019-03-11T03:19:29.565Z,12.55
2019-03-11T03:21:56.835Z,10.95
2019-03-11T03:24:24.143Z,10.48
2019-03-11T03:26:51.426Z,10.78
2019-03-11T03:29:19.276Z,10.55
2019-03-11T03:31:46.552Z,6.62
2019-03-11T03:34:13.872Z,4.15
2019-03-11T03:36:41.201Z,7.17
2019-03-11T03:39:08.670Z,7.45
2019-03-11T03:41:36.399Z,9.30
2019-03-11T03:44:03.741Z,9.50
2019-03-11T03:46:31.096Z,5.42
2019-03-11T03:48:58.360Z,8.05
2019-03-11T03:51:25.668Z,11.08
2019-03-11T03:53:53.033Z,10.05
2019-03-11T03:56:20.416Z,15.23
2019-03-11T03:58:47.770Z,10.35
2019-03-11T04:01:15.096Z,12.05
2019-03-11T04:03:42.600Z,5.47
2019-03-11T04:06:09.948Z,9.23
2019-03-11T04:08:37.323Z,9.40
2019-03-11T04:11:04.686Z,8.08
2019-03-11T04:13:31.966Z,9.93
2019-03-11T04:15:59.258Z,9.93
2019-03-11T04:18:28.084Z,11.48
2019-03-11T04:20:55.448Z,8.65
2019-03-11T04:23:22.785Z,10.98
2019-03-11T04:25:50.161Z,11.45
2019-03-11T04:28:17.610Z,6.25
2019-03-11T04:30:44.947Z,19.52
2019-03-11T04:33:12.231Z,12.50
2019-03-11T04:35:39.534Z,11.28
2019-03-11T04:38:06.893Z,9.28
2019-03-11T04:40:34.175Z,10.75
2019-03-11T04:43:01.459Z,11.18
2019-03-11T04:45:28.732Z,7.20
2019-03-11T04:47:56.091Z,10.10
2019-03-11T04:50:23.412Z,10.65
2019-03-11T04:52:50.871Z,8.53
2019-03-11T04:55:18.309Z,16.02
2019-03-11T04:57:52.840Z,10.35
2019-03-11T05:00:23.888Z,7.00
2019-03-11T05:02:51.209Z,11.08
2019-03-11T05:05:18.668Z,12.03
2019-03-11T05:07:45.958Z,9.30
2019-03-11T05:10:16.194Z,10.95
2019-03-11T05:12:42.722Z,3.35
2019-03-11T05:15:10.791Z,2.85
2019-03-11T05:17:38.114Z,4.33
2019-03-11T05:20:07.137Z,5.28
2019-03-11T05:22:34.446Z,9.40
2019-03-11T05:25:01.798Z,13.32
2019-03-11T05:27:29.081Z,11.55
2019-03-11T05:29:56.400Z,10.60
2019-03-11T05:32:23.741Z,14.75
2019-03-11T05:34:51.267Z,10.53
2019-03-11T05:37:18.631Z,12.95
2019-03-11T05:39:45.917Z,15.23
2019-03-11T05:42:13.187Z,10.35
2019-03-11T05:44:40.837Z,11.18
2019-03-11T05:47:08.171Z,7.60
2019-03-11T05:49:35.431Z,12.58
2019-03-11T05:52:02.867Z,6.22
2019-03-11T05:54:30.227Z,7.55
2019-03-11T05:56:59.097Z,10.08
2019-03-11T05:59:26.651Z,10.68
2019-03-11T06:01:53.960Z,7.72
2019-03-11T06:04:21.247Z,12.05
2019-03-11T06:06:48.534Z,17.42
2019-03-11T06:09:15.834Z,13.15
2019-03-11T06:11:43.110Z,12.15
2019-03-11T06:14:10.467Z,10.10
2019-03-11T06:16:37.730Z,10.58
2019-03-11T06:19:05.070Z,12.25
2019-03-11T06:21:34.006Z,11.97
2019-03-11T06:24:01.341Z,11.88
2019-03-11T06:26:28.635Z,10.88
2019-03-11T06:28:55.901Z,14.58
2019-03-11T06:31:23.181Z,11.50
2019-03-11T06:33:50.544Z,11.68
2019-03-11T06:36:17.828Z,10.15
2019-03-11T06:38:45.114Z,16.35
2019-03-11T06:41:12.420Z,14.33
2019-03-11T06:43:39.765Z,15.13
2019-03-11T06:46:07.450Z,6.83
2019-03-11T06:48:34.767Z,13.18
2019-03-11T06:51:02.176Z,13.05
2019-03-11T06:53:29.437Z,10.95
2019-03-11T06:55:56.718Z,11.85
2019-03-11T06:58:24.004Z,12.60
2019-03-11T07:00:51.287Z,13.50
2019-03-11T07:03:18.589Z,14.43
2019-03-11T07:05:46.129Z,7.62
2019-03-11T07:08:13.642Z,12.03
2019-03-11T07:10:41.103Z,10.53
2019-03-11T07:13:08.696Z,10.90
2019-03-11T07:15:36.410Z,11.83
2019-03-11T07:18:08.058Z,11.48
2019-03-11T07:20:37.074Z,10.65
2019-03-11T07:23:04.470Z,15.05
2019-03-11T07:25:32.019Z,14.68
2019-03-11T07:28:02.265Z,8.28
2019-03-11T07:30:29.678Z,9.85
2019-03-11T07:32:57.058Z,8.30
2019-03-11T07:35:24.460Z,10.63
2019-03-11T07:37:51.894Z,7.05
2019-03-11T07:40:28.951Z,15.80
2019-03-11T07:42:48.633Z,12.25
2019-03-11T07:45:16.626Z,8.73
2019-03-11T07:47:45.182Z,11.15
2019-03-11T07:50:13.523Z,9.78
2019-03-11T07:52:42.465Z,12.00
2019-03-11T07:55:10.979Z,9.83
2019-03-11T07:57:38.363Z,12.13
2019-03-11T08:00:10.040Z,13.15
2019-03-11T08:02:37.661Z,9.57
2019-03-11T08:05:06.328Z,14.98
2019-03-11T08:07:33.610Z,12.00
2019-03-11T08:10:00.994Z,10.53
2019-03-11T08:12:28.290Z,13.68
2019-03-11T08:14:55.559Z,14.05
2019-03-11T08:17:22.901Z,14.25
2019-03-11T08:19:50.202Z,9.73
2019-03-11T08:22:17.480Z,13.28
2019-03-11T08:24:50.773Z,13.22
2019-03-11T08:27:18.080Z,18.70
2019-03-11T08:29:45.920Z,15.53
2019-03-11T08:32:14.960Z,15.35
2019-03-11T08:34:42.293Z,15.43
2019-03-11T08:37:09.637Z,13.18
2019-03-11T08:39:36.914Z,9.70
2019-03-11T08:42:04.214Z,11.45
2019-03-11T08:44:31.534Z,13.00
2019-03-11T08:46:58.817Z,12.90
2019-03-11T08:49:26.159Z,14.87
2019-03-11T08:51:53.598Z,12.15
2019-03-11T08:54:20.879Z,13.93
2019-03-11T08:56:48.146Z,12.23
2019-03-11T08:59:15.443Z,16.82
2019-03-11T09:01:42.720Z,18.87
2019-03-11T09:04:10.074Z,10.08
2019-03-11T09:06:37.387Z,9.45
2019-03-11T09:09:06.031Z,12.00
2019-03-11T09:11:33.662Z,8.40
2019-03-11T09:14:00.974Z,15.95
2019-03-11T09:16:28.288Z,11.53
2019-03-11T09:18:55.651Z,13.43
2019-03-11T09:21:23.086Z,15.45
2019-03-11T09:23:50.544Z,13.22
2019-03-11T09:26:17.828Z,15.35
2019-03-11T09:28:45.093Z,17.87
2019-03-11T09:31:12.555Z,9.95
2019-03-11T09:33:39.815Z,9.63
2019-03-11T09:36:07.198Z,17.37
2019-03-11T09:38:34.476Z,21.55
2019-03-11T09:41:01.767Z,11.18
2019-03-11T09:43:29.103Z,15.15
2019-03-11T09:45:56.393Z,11.48
2019-03-11T09:48:23.676Z,14.23
2019-03-11T09:50:50.964Z,13.38
2019-03-11T09:53:18.251Z,25.97
2019-03-11T09:55:45.526Z,12.18
2019-03-11T09:58:12.829Z,10.95
2019-03-11T10:00:40.090Z,17.87
2019-03-11T10:03:07.387Z,13.00
2019-03-11T10:05:34.648Z,14.90
2019-03-11T10:08:02.035Z,18.30
2019-03-11T10:10:30.152Z,18.02
2019-03-11T10:12:57.435Z,15.20
2019-03-11T10:15:24.770Z,16.15
2019-03-11T10:17:52.035Z,11.43
2019-03-11T10:20:19.989Z,14.33
2019-03-11T10:22:47.254Z,12.58
2019-03-11T10:25:15.427Z,15.63
2019-03-11T10:27:42.698Z,17.45
2019-03-11T10:30:19.941Z,11.03
2019-03-11T10:32:47.682Z,18.23
2019-03-11T10:35:30.791Z,19.17
2019-03-11T10:37:45.329Z,14.28
2019-03-11T10:40:14.084Z,15.63
2019-03-11T10:42:41.507Z,11.45
2019-03-11T10:45:10.239Z,14.40
2019-03-11T10:47:37.541Z,17.32
2019-03-11T10:50:06.430Z,13.78
2019-03-11T10:52:33.789Z,16.67
2019-03-11T10:55:01.119Z,22.35
2019-03-11T10:57:28.504Z,12.85
2019-03-11T10:59:56.030Z,11.28
2019-03-11T11:02:23.307Z,10.53
2019-03-11T11:04:50.593Z,14.73
2019-03-11T11:07:17.867Z,15.30
2019-03-11T11:09:45.201Z,19.77
2019-03-11T11:12:12.454Z,11.05
2019-03-11T11:14:39.839Z,10.68
2019-03-11T11:17:07.191Z,12.10
2019-03-11T11:19:34.443Z,14.30
2019-03-11T11:22:01.747Z,13.62
2019-03-11T11:24:29.086Z,14.87
2019-03-11T11:26:56.486Z,11.12
2019-03-11T11:29:23.928Z,20.57
2019-03-11T11:31:51.212Z,16.42
2019-03-11T11:34:18.473Z,14.60
2019-03-11T11:36:45.760Z,19.62
2019-03-11T11:39:13.214Z,14.45
2019-03-11T11:41:40.506Z,19.55
2019-03-11T11:44:07.763Z,14.00
2019-03-11T11:46:35.037Z,15.05
2019-03-11T11:49:02.301Z,17.00
2019-03-11T11:51:29.591Z,16.45
2019-03-11T11:53:56.914Z,17.48
2019-03-11T11:56:24.173Z,14.25
2019-03-11T11:58:51.467Z,16.60
2019-03-11T12:01:18.734Z,13.60
2019-03-11T12:03:46.037Z,17.37
2019-03-11T12:06:13.434Z,14.60
2019-03-11T12:08:40.715Z,14.18
2019-03-11T12:11:07.971Z,11.48
2019-03-11T12:13:35.259Z,10.45
2019-03-11T12:16:02.630Z,13.72
2019-03-11T12:18:29.967Z,15.98
2019-03-11T12:20:57.258Z,13.70
2019-03-11T12:23:24.530Z,12.82
2019-03-11T12:25:51.805Z,14.10
2019-03-11T12:28:19.129Z,13.18
2019-03-11T12:30:46.502Z,10.15
2019-03-11T12:33:13.761Z,12.53
2019-03-11T12:35:41.045Z,7.22
2019-03-11T12:38:08.390Z,6.17
2019-03-11T12:40:35.775Z,8.40
2019-03-11T12:43:03.279Z,13.93
2019-03-11T12:45:30.614Z,10.40
2019-03-11T12:47:57.926Z,19.52
2019-03-11T12:50:26.159Z,8.70
2019-03-11T12:52:53.451Z,16.02
2019-03-11T12:55:21.540Z,10.95
2019-03-11T12:57:49.188Z,10.53
2019-03-11T13:00:17.438Z,12.55
2019-03-11T13:02:44.701Z,9.58
2019-03-11T13:05:12.351Z,9.50
2019-03-11T13:07:39.914Z,10.38
2019-03-11T13:10:08.734Z,13.32
2019-03-11T13:12:36.067Z,12.88
2019-03-11T13:15:03.826Z,10.72
2019-03-11T13:17:31.109Z,10.78
2019-03-11T13:19:58.632Z,11.73
2019-03-11T13:22:25.914Z,16.05
2019-03-11T13:24:53.174Z,10.03
2019-03-11T13:27:20.456Z,11.93
2019-03-11T13:29:47.925Z,6.42
2019-03-11T13:32:15.220Z,12.15
2019-03-11T13:34:42.503Z,11.93
2019-03-11T13:37:09.816Z,11.85
2019-03-11T13:39:37.157Z,11.03
2019-03-11T13:42:04.960Z,11.25
2019-03-11T13:44:32.266Z,7.70
2019-03-11T13:46:59.555Z,10.98
2019-03-11T13:49:26.824Z,10.20
2019-03-11T13:51:54.150Z,8.58
2019-03-11T13:54:21.497Z,9.73
2019-03-11T13:56:48.866Z,12.05
2019-03-11T13:59:16.432Z,7.78
2019-03-11T14:01:43.725Z,10.35
2019-03-11T14:04:11.088Z,10.90
2019-03-11T14:06:38.420Z,10.28
2019-03-11T14:09:05.873Z,8.18
2019-03-11T14:11:33.129Z,8.30
2019-03-11T14:14:00.576Z,9.15
2019-03-11T14:16:28.014Z,8.45
2019-03-11T14:18:55.370Z,11.97
2019-03-11T14:21:25.913Z,11.97
2019-03-11T14:23:51.655Z,6.87
2019-03-11T14:26:18.914Z,9.13
2019-03-11T14:28:46.214Z,13.80
2019-03-11T14:31:13.495Z,8.95
2019-03-11T14:33:40.837Z,12.78
2019-03-11T14:36:09.626Z,13.03
2019-03-11T14:38:36.908Z,7.47
2019-03-11T14:41:04.254Z,13.38
2019-03-11T14:43:31.546Z,8.98
2019-03-11T14:45:58.810Z,11.43
2019-03-11T14:48:26.073Z,11.78
2019-03-11T14:50:55.080Z,15.95
2019-03-11T14:53:22.798Z,10.95
2019-03-11T14:55:51.928Z,18.60
2019-03-11T14:58:29.020Z,12.65
2019-03-11T15:00:51.942Z,13.30
2019-03-11T15:03:19.333Z,13.53
2019-03-11T15:05:46.841Z,15.43
2019-03-11T15:08:17.324Z,14.00
2019-03-11T15:10:46.918Z,12.70
2019-03-11T15:13:13.918Z,10.53
2019-03-11T15:15:41.356Z,12.95
2019-03-11T15:18:10.319Z,10.28
2019-03-11T15:20:40.882Z,13.35
2019-03-11T15:23:20.338Z,13.35
2019-03-11T15:25:40.204Z,13.22
2019-03-11T15:28:10.466Z,16.65
2019-03-11T15:30:39.519Z,14.85
2019-03-11T15:33:07.116Z,15.72
2019-03-11T15:35:34.497Z,16.55
2019-03-11T15:38:01.768Z,13.08
2019-03-11T15:40:29.046Z,15.55
2019-03-11T15:42:56.306Z,10.60
2019-03-11T15:45:23.664Z,13.95
2019-03-11T15:47:51.113Z,15.03
2019-03-11T15:50:31.439Z,14.00
2019-03-11T15:52:58.708Z,16.00
2019-03-11T15:55:26.072Z,13.48
2019-03-11T15:57:53.353Z,16.65
2019-03-11T16:00:21.310Z,10.90
2019-03-11T16:02:48.792Z,11.10
2019-03-11T16:05:17.123Z,10.60
2019-03-11T16:07:44.489Z,11.30
2019-03-11T16:10:17.199Z,10.70
2019-03-11T16:12:42.052Z,11.00
2019-03-11T16:15:10.531Z,12.03
2019-03-11T16:17:37.839Z,14.87
2019-03-11T16:20:06.669Z,12.93
2019-03-11T16:22:33.958Z,11.95
2019-03-11T16:25:01.265Z,15.45
2019-03-11T16:27:28.626Z,12.03
2019-03-11T16:29:55.919Z,11.63
2019-03-11T16:32:23.252Z,14.10
2019-03-11T16:34:50.674Z,14.70
2019-03-11T16:37:17.933Z,12.10
2019-03-11T16:39:45.253Z,15.58
2019-03-11T16:42:12.529Z,11.70
2019-03-11T16:44:39.962Z,9.35
2019-03-11T16:47:07.233Z,15.20
2019-03-11T16:49:34.511Z,13.40
2019-03-11T16:52:01.770Z,11.93
2019-03-11T16:54:29.075Z,16.57
2019-03-11T16:56:56.334Z,16.42
2019-03-11T16:59:23.626Z,11.75
2019-03-11T17:01:51.018Z,12.58
2019-03-11T17:04:18.411Z,11.93
2019-03-11T17:06:45.965Z,16.57
2019-03-11T17:09:13.294Z,10.70
2019-03-11T17:11:40.563Z,18.67
2019-03-11T17:14:07.834Z,18.23
2019-03-11T17:16:35.119Z,16.48
2019-03-11T17:19:02.603Z,10.32
2019-03-11T17:21:29.911Z,13.50
2019-03-11T17:23:57.229Z,12.45
2019-03-11T17:26:24.530Z,10.48
2019-03-11T17:28:51.829Z,13.68
2019-03-11T17:31:19.094Z,17.10
2019-03-11T17:33:46.421Z,14.50
2019-03-11T17:36:13.680Z,11.12
2019-03-11T17:38:40.959Z,16.25
2019-03-11T17:41:08.220Z,15.90
2019-03-11T17:43:35.580Z,16.77
2019-03-11T17:46:03.263Z,12.73
2019-03-11T17:48:30.570Z,11.00
2019-03-11T17:50:57.832Z,18.62
2019-03-11T17:53:25.262Z,14.43
2019-03-11T17:55:52.525Z,12.25
2019-03-11T17:58:19.831Z,13.40
2019-03-11T18:00:55.362Z,6.47
2019-03-11T18:03:17.794Z,12.35
2019-03-11T18:05:45.130Z,15.32
2019-03-11T18:08:12.415Z,13.30
2019-03-11T18:10:39.696Z,8.35
2019-03-11T18:13:06.949Z,12.68
2019-03-11T18:15:34.320Z,11.50
2019-03-11T18:18:01.586Z,15.80
2019-03-11T18:20:28.942Z,10.45
2019-03-11T18:22:56.221Z,13.28
2019-03-11T18:25:25.799Z,15.60
2019-03-11T18:27:53.138Z,9.28
2019-03-11T18:30:21.442Z,15.70
2019-03-11T18:32:49.148Z,11.80
2019-03-11T18:35:16.415Z,13.70
2019-03-11T18:37:44.024Z,13.95
2019-03-11T18:40:12.571Z,10.25
2019-03-11T18:42:39.851Z,13.53
2019-03-11T18:45:08.733Z,12.63
2019-03-11T18:47:36.091Z,14.70
2019-03-11T18:50:04.333Z,19.15
2019-03-11T18:52:31.694Z,15.05
2019-03-11T18:54:59.052Z,16.90
2019-03-11T18:57:26.401Z,12.43
2019-03-11T18:59:53.831Z,11.05
2019-03-11T19:02:21.204Z,18.52
2019-03-11T19:04:48.513Z,16.02
2019-03-11T19:07:15.948Z,11.60
2019-03-11T19:09:43.292Z,16.15
2019-03-11T19:12:10.634Z,22.77
2019-03-11T19:14:38.022Z,14.95
2019-03-11T19:17:05.424Z,17.87
2019-03-11T19:19:32.728Z,15.38
2019-03-11T19:22:00.096Z,10.98
2019-03-11T19:24:27.409Z,7.20
2019-03-11T19:26:55.750Z,10.35
2019-03-11T19:29:23.388Z,7.72
2019-03-11T19:31:50.749Z,5.03
2019-03-11T19:34:18.081Z,9.33
2019-03-11T19:36:45.423Z,4.05
2019-03-11T19:39:14.389Z,5.78
2019-03-11T19:41:41.713Z,5.78
2019-03-11T19:44:09.005Z,3.33
2019-03-11T19:46:36.448Z,6.10
2019-03-11T19:49:03.846Z,7.40
2019-03-11T19:51:31.235Z,6.47
2019-03-11T19:53:58.631Z,9.88
2019-03-11T19:56:25.953Z,3.65
2019-03-11T19:58:53.285Z,5.92
2019-03-11T20:01:20.630Z,9.18
2019-03-11T20:03:47.916Z,11.03
2019-03-11T20:06:15.255Z,6.22
2019-03-11T20:08:42.675Z,4.50
2019-03-11T20:11:09.974Z,7.58
2019-03-11T20:13:37.309Z,12.03
2019-03-11T20:16:04.663Z,8.68
2019-03-11T20:18:31.945Z,10.30
2019-03-11T20:20:59.401Z,4.28
2019-03-11T20:23:26.795Z,8.40
2019-03-11T20:25:54.074Z,6.30
2019-03-11T20:28:21.360Z,9.53
2019-03-11T20:30:48.705Z,4.45
2019-03-11T20:33:16.250Z,4.20
2019-03-11T20:35:44.419Z,2.85
2019-03-11T20:38:11.926Z,5.70
2019-03-11T20:40:39.418Z,6.20
2019-03-11T20:43:06.855Z,3.10
2019-03-11T20:45:34.184Z,4.62
2019-03-11T20:48:01.574Z,6.85
2019-03-11T20:50:37.600Z,4.10
2019-03-11T20:52:57.911Z,6.05
2019-03-11T20:55:25.251Z,6.33
2019-03-11T20:57:52.606Z,4.78
2019-03-11T21:00:20.680Z,3.90
2019-03-11T21:02:48.138Z,5.30
2019-03-11T21:05:16.787Z,6.37
2019-03-11T21:07:44.160Z,4.70
2019-03-11T21:10:12.462Z,4.60
2019-03-11T21:12:39.931Z,6.03
2019-03-11T21:15:08.594Z,4.40
2019-03-11T21:17:35.926Z,4.30
2019-03-11T21:20:06.081Z,5.03
2019-03-11T21:22:33.509Z,10.53
2019-03-11T21:25:00.954Z,6.03
2019-03-11T21:27:28.580Z,7.15
2019-03-11T21:29:55.927Z,4.65
2019-03-11T21:32:23.351Z,4.03
2019-03-11T21:34:50.762Z,6.28
2019-03-11T21:37:18.296Z,5.58
2019-03-11T21:39:45.772Z,6.12
2019-03-11T21:42:13.253Z,6.83
2019-03-11T21:44:40.644Z,5.22
2019-03-11T21:47:08.017Z,8.50
2019-03-11T21:49:35.404Z,4.92
2019-03-11T21:52:02.813Z,3.02
2019-03-11T21:54:30.197Z,5.95
2019-03-11T21:56:57.522Z,4.17
2019-03-11T21:59:24.906Z,5.97
2019-03-11T22:01:52.562Z,5.40
2019-03-11T22:04:19.978Z,4.67
2019-03-11T22:06:47.244Z,3.50
2019-03-11T22:09:14.550Z,3.35
2019-03-11T22:11:41.841Z,6.30
2019-03-11T22:14:09.108Z,3.37
2019-03-11T22:16:36.525Z,6.08
2019-03-11T22:19:03.858Z,6.62
2019-03-11T22:21:31.213Z,5.80
2019-03-11T22:23:58.501Z,6.60
2019-03-11T22:26:25.773Z,5.40
2019-03-11T22:28:53.058Z,5.67
2019-03-11T22:31:20.342Z,4.42
2019-03-11T22:33:47.598Z,4.25
2019-03-11T22:36:14.882Z,8.03
2019-03-11T22:38:42.142Z,4.25
2019-03-11T22:41:09.458Z,5.25
2019-03-11T22:43:36.732Z,8.48
2019-03-11T22:46:04.023Z,6.90
2019-03-11T22:48:31.278Z,6.25
2019-03-11T22:50:58.558Z,5.30
2019-03-11T22:53:25.820Z,5.50
2019-03-11T22:55:53.167Z,4.58
2019-03-11T22:58:20.519Z,2.35
2019-03-11T23:00:59.124Z,2.90
2019-03-11T23:03:26.569Z,4.97
2019-03-11T23:05:57.974Z,2.37
2019-03-11T23:08:22.952Z,4.12
2019-03-11T23:10:50.243Z,4.65
2019-03-11T23:13:17.578Z,5.00
2019-03-11T23:15:44.938Z,5.12
2019-03-11T23:18:12.253Z,5.00
2019-03-11T23:20:39.535Z,3.27
2019-03-11T23:23:06.807Z,4.80
2019-03-11T23:25:34.084Z,3.30
2019-03-11T23:28:01.359Z,4.58
2019-03-11T23:30:28.819Z,4.65
2019-03-11T23:32:56.122Z,3.27
2019-03-11T23:35:23.402Z,2.30
2019-03-11T23:37:50.661Z,6.60
2019-03-11T23:40:17.954Z,7.92
2019-03-11T23:42:45.214Z,4.50
2019-03-11T23:45:12.565Z,3.27
2019-03-11T23:47:39.849Z,7.55
2019-03-11T23:50:08.866Z,3.35
2019-03-11T23:52:36.135Z,5.10
2019-03-11T23:55:04.775Z,6.58
2019-03-11T23:57:32.075Z,6.20
2019-03-11T23:59:59.326Z,4.45
